Time;durP1;ratioP1;P1;durP2;ratioP2;P2;SDS_P1;SDS_P2;PMS_P1;PMS_P2;Temp;Humidity;BMP_temperature;BMP_pressure;BME280_temperature;BME280_humidity;BME280_pressure;Samples;Min_cycle;Max_cycle;Signal;HPM_P1;HPM_P2
2022/09/29 05:33:06;;;;;;;;;;;;;;;16.39;100.00;98897.94;5546815;23;1654;-59
2022/09/29 05:35:33;;;;;;;;;;;;;;;16.57;100.00;98886.00;4994938;28;889;-59
2022/09/29 05:38:00;;;;;;;;;;;;;;;16.78;100.00;98901.78;4995144;28;854;-59
2022/09/29 05:40:27;;;;;;;;;;;;;;;16.99;100.00;98896.53;4994811;28;847;-60
2022/09/29 05:42:54;;;;;;;;;;;;;;;17.15;100.00;98901.75;4994768;28;811;-59
2022/09/29 05:45:20;;;;;;;;;;;;;;;17.23;100.00;98905.75;4994698;28;847;-59
2022/09/29 05:47:47;;;;;;;;;;;;;;;17.31;100.00;98912.56;4994535;28;1981;-59
2022/09/29 05:50:14;;;;;;;;;;;;;;;17.48;98.01;98906.63;4994626;28;854;-59
2022/09/29 05:52:40;;;;;;;;;;;;;;;17.66;95.70;98902.97;4994858;28;874;-59
2022/09/29 05:55:08;;;;;;;;;;;;;;;17.70;94.04;98895.94;4994532;28;867;-60
2022/09/29 05:57:35;;;;;;;;;;;;;;;17.74;92.50;98896.53;4994512;28;846;-59
2022/09/29 06:00:02;;;;;;;;;;;;;;;17.89;91.93;98907.06;4994601;28;835;-59
2022/09/29 06:02:28;;;;;;;;;;;;;;;18.10;90.92;98910.84;4994492;28;839;-60
2022/09/29 06:04:55;;;;;;;;;;;;;;;18.31;89.31;98909.75;4994362;28;863;-59
2022/09/29 06:07:21;;;;;;;;;;;;;;;18.50;87.67;98913.19;4994278;28;1891;-60
2022/09/29 06:09:48;;;;;;;;;;;;;;;18.72;85.38;98918.44;4994168;28;898;-59
2022/09/29 06:12:15;;;;;;;;;;;;;;;18.90;83.74;98923.09;4994237;28;803;-59
2022/09/29 06:14:41;;;;;;;;;;;;;;;19.10;81.95;98922.47;4994167;28;878;-59
2022/09/29 06:17:08;;;;;;;;;;;;;;;19.22;80.20;98923.41;4994084;28;815;-59
2022/09/29 06:19:35;;;;;;;;;;;;;;;19.38;78.57;98922.94;4994387;28;842;-59
2022/09/29 06:22:01;;;;;;;;;;;;;;;19.62;77.48;98924.84;4994013;28;870;-59
2022/09/29 06:24:28;;;;;;;;;;;;;;;19.83;75.89;98927.72;4994089;28;803;-59
2022/09/29 06:26:55;;;;;;;;;;;;;;;19.98;75.04;98931.25;4993915;28;796;-59
2022/09/29 06:29:22;;;;;;;;;;;;;;;20.36;73.43;98941.47;4993979;28;823;-59
2022/09/29 06:31:48;;;;;;;;;;;;;;;20.83;71.23;98935.16;4993734;28;877;-59
2022/09/29 06:34:15;;;;;;;;;;;;;;;21.06;70.39;98934.09;4993641;28;1381;-59
2022/09/29 06:39:28;;;;;;;;;;;;;;;21.15;69.12;98941.59;4993710;28;708;-59
2022/09/29 06:41:55;;;;;;;;;;;;;;;21.34;69.22;98934.38;4992878;28;1057;-59
2022/09/29 06:44:24;;;;;;;;;;;;;;;21.50;67.54;98935.03;4993844;28;842;-60
2022/09/29 06:46:50;;;;;;;;;;;;;;;21.61;66.96;98935.09;4993523;28;832;-59
2022/09/29 06:49:17;;;;;;;;;;;;;;;21.83;65.75;98931.69;4993437;28;1898;-59
2022/09/29 06:51:45;;;;;;;;;;;;;;;22.00;64.51;98929.75;4993445;28;815;-59
2022/09/29 06:54:15;;;;;;;;;;;;;;;22.28;62.86;98925.59;4993523;28;826;-59
2022/09/29 06:56:41;;;;;;;;;;;;;;;22.75;61.19;98921.16;4993268;28;862;-59
2022/09/29 06:59:08;;;;;;;;;;;;;;;23.76;58.05;98928.19;4993397;28;967;-59
2022/09/29 07:01:35;;;;;;;;;;;;;;;24.69;54.05;98921.25;4993120;28;815;-59
2022/09/29 07:04:02;;;;;;;;;;;;;;;25.12;53.10;98926.38;4993267;28;796;-59
2022/09/29 07:06:29;;;;;;;;;;;;;;;25.02;52.72;98925.91;4993331;28;851;-59
2022/09/29 07:08:55;;;;;;;;;;;;;;;24.43;54.57;98924.41;4993105;28;1882;-59
2022/09/29 07:11:22;;;;;;;;;;;;;;;23.87;56.25;98928.16;4993090;28;854;-59
2022/09/29 07:13:50;;;;;;;;;;;;;;;23.83;55.93;98922.78;4993075;28;583;-59
2022/09/29 07:16:17;;;;;;;;;;;;;;;24.14;55.84;98918.09;4992952;28;867;-60
2022/09/29 07:18:45;;;;;;;;;;;;;;;25.29;52.69;98917.03;4992962;28;878;-59
2022/09/29 07:21:17;;;;;;;;;;;;;;;26.02;50.60;98913.53;4992960;28;811;-60
2022/09/29 07:23:44;;;;;;;;;;;;;;;26.64;49.69;98918.50;4992834;28;921;-60
2022/09/29 07:26:11;;;;;;;;;;;;;;;27.08;48.38;98916.31;4992938;28;857;-59
2022/09/29 07:28:38;;;;;;;;;;;;;;;27.61;46.82;98910.84;4992719;28;1910;-59
2022/09/29 07:31:09;;;;;;;;;;;;;;;27.67;46.45;98910.72;4992571;28;1145;-59
2022/09/29 07:33:36;;;;;;;;;;;;;;;27.43;46.72;98909.59;4992767;28;1165;-59
2022/09/29 07:36:03;;;;;;;;;;;;;;;26.87;47.92;98924.63;4992748;28;843;-60
2022/09/29 07:38:30;;;;;;;;;;;;;;;26.88;47.91;98918.44;4992858;28;811;-59
2022/09/29 07:41:01;;;;;;;;;;;;;;;26.28;49.80;98915.81;4975166;28;1468;-59
2022/09/29 07:43:28;;;;;;;;;;;;;;;26.42;49.51;98922.34;4993156;28;839;-59
2022/09/29 07:45:55;;;;;;;;;;;;;;;26.59;49.52;98919.34;4992775;28;878;-59
2022/09/29 07:48:22;;;;;;;;;;;;;;;26.81;48.68;98915.44;4993073;28;1930;-59
2022/09/29 07:50:48;;;;;;;;;;;;;;;27.08;48.68;98922.75;4992733;28;819;-60
2022/09/29 07:53:15;;;;;;;;;;;;;;;27.74;46.84;98907.28;4993045;28;812;-60
2022/09/29 07:55:41;;;;;;;;;;;;;;;28.08;46.69;98918.78;4992717;28;807;-60
2022/09/29 07:58:08;;;;;;;;;;;;;;;27.97;47.76;98915.38;4992584;28;815;-60
2022/09/29 08:00:34;;;;;;;;;;;;;;;28.24;47.63;98913.31;4991993;28;835;-59
2022/09/29 08:03:06;;;;;;;;;;;;;;;28.99;46.42;98911.97;4992266;28;865;-59
2022/09/29 08:05:33;;;;;;;;;;;;;;;29.43;45.40;98914.34;4992413;28;832;-59
2022/09/29 08:08:00;;;;;;;;;;;;;;;29.94;44.76;98905.28;4992401;28;1879;-59
2022/09/29 08:10:28;;;;;;;;;;;;;;;29.97;44.00;98901.28;4992215;28;931;-59
2022/09/29 08:12:55;;;;;;;;;;;;;;;29.59;44.82;98909.53;4991480;28;883;-59
2022/09/29 08:15:22;;;;;;;;;;;;;;;29.50;44.84;98911.53;4992208;28;787;-60
2022/09/29 08:17:48;;;;;;;;;;;;;;;28.25;47.35;98912.78;4990827;28;815;-59
2022/09/29 08:20:15;;;;;;;;;;;;;;;26.77;51.75;98917.81;4992240;28;874;-60
2022/09/29 08:22:41;;;;;;;;;;;;;;;26.09;54.75;98901.63;4992142;28;804;-60
2022/09/29 08:25:09;;;;;;;;;;;;;;;26.07;56.01;98905.00;4992231;28;858;-60
2022/09/29 08:27:35;;;;;;;;;;;;;;;26.17;55.39;98910.28;4992189;28;1945;-60
2022/09/29 08:30:02;;;;;;;;;;;;;;;26.16;56.06;98901.03;4990753;28;1527;-61
2022/09/29 08:32:29;;;;;;;;;;;;;;;27.18;54.28;98894.00;4992412;28;937;-60
2022/09/29 08:34:55;;;;;;;;;;;;;;;28.25;51.09;98890.06;4991963;28;1344;-60
2022/09/29 08:37:22;;;;;;;;;;;;;;;28.13;50.02;98891.59;4992337;28;830;-60
2022/09/29 08:39:48;;;;;;;;;;;;;;;28.10;50.97;98889.81;4992486;28;764;-60
2022/09/29 08:42:15;;;;;;;;;;;;;;;28.81;48.96;98888.09;4992002;28;870;-60
2022/09/29 08:44:44;;;;;;;;;;;;;;;29.37;47.71;98885.25;4992022;28;1241;-60
2022/09/29 08:47:16;;;;;;;;;;;;;;;29.63;46.41;98887.16;4974543;28;1914;-60
2022/09/29 08:49:47;;;;;;;;;;;;;;;29.61;46.27;98886.97;4991843;28;866;-60
2022/09/29 08:52:27;;;;;;;;;;;;;;;28.69;48.00;98886.81;4991875;28;866;-60
2022/09/29 08:55:06;;;;;;;;;;;;;;;27.64;50.66;98886.28;4991943;28;807;-59
2022/09/29 08:57:35;;;;;;;;;;;;;;;28.13;50.81;98888.00;4991843;28;867;-60
2022/09/29 09:00:02;;;;;;;;;;;;;;;28.15;49.80;98880.44;4991878;28;822;-60
2022/09/29 09:02:38;;;;;;;;;;;;;;;27.31;52.27;98890.47;4991773;28;795;-60
2022/09/29 09:05:23;;;;;;;;;;;;;;;27.28;53.45;98884.56;4993381;28;926;-61
2022/09/29 09:07:57;;;;;;;;;;;;;;;27.92;51.66;98885.03;4995589;28;1980;-60
2022/09/29 09:10:29;;;;;;;;;;;;;;;27.99;51.96;98884.38;4995372;28;812;-60
2022/09/29 09:13:12;;;;;;;;;;;;;;;27.43;52.88;98886.13;4995307;28;839;-61
2022/09/29 09:15:56;;;;;;;;;;;;;;;26.91;54.51;98893.13;4995292;28;866;-60
2022/09/29 09:18:41;;;;;;;;;;;;;;;26.63;56.25;98889.41;4995367;28;807;-60
2022/09/29 09:21:09;;;;;;;;;;;;;;;26.60;57.03;98898.19;4995426;28;854;-61
2022/09/29 09:23:36;;;;;;;;;;;;;;;26.62;57.11;98901.25;4995194;28;862;-61
2022/09/29 09:26:03;;;;;;;;;;;;;;;26.62;56.92;98901.25;4995128;28;826;-61
2022/09/29 09:28:34;;;;;;;;;;;;;;;26.31;58.17;98905.47;4994991;28;1891;-61
2022/09/29 09:31:08;;;;;;;;;;;;;;;25.95;59.18;98905.66;4994966;28;839;-60
2022/09/29 09:33:47;;;;;;;;;;;;;;;25.68;59.94;98899.72;4995028;28;1209;-61
2022/09/29 09:36:23;;;;;;;;;;;;;;;25.58;60.75;98907.00;4994904;28;903;-61
2022/09/29 09:38:59;;;;;;;;;;;;;;;26.10;59.69;98896.75;4994874;28;819;-60
2022/09/29 09:41:28;;;;;;;;;;;;;;;26.68;58.02;98905.53;4994974;28;889;-60
2022/09/29 09:44:18;;;;;;;;;;;;;;;26.80;57.09;98900.50;4977321;28;1197;-60
2022/09/29 09:46:48;;;;;;;;;;;;;;;26.96;56.77;98901.53;4967013;28;1190;-61
2022/09/29 09:49:18;;;;;;;;;;;;;;;27.01;56.17;98897.09;4994655;28;1972;-61
2022/09/29 09:52:11;;;;;;;;;;;;;;;27.40;54.96;98887.22;4994591;28;827;-61
2022/09/29 09:54:59;;;;;;;;;;;;;;;28.38;51.89;98894.94;4992074;28;1069;-60
2022/09/29 09:57:37;;;;;;;;;;;;;;;29.54;49.01;98896.97;4994509;28;846;-60
2022/09/29 10:00:24;;;;;;;;;;;;;;;29.47;47.76;98898.44;4994504;28;875;-60
2022/09/29 10:02:54;;;;;;;;;;;;;;;28.39;47.57;98890.03;4994398;28;806;-60
2022/09/29 10:05:29;;;;;;;;;;;;;;;27.68;48.43;98890.31;4994383;28;874;-60
2022/09/29 10:07:57;;;;;;;;;;;;;;;27.42;50.23;98890.28;4994273;28;1890;-60
2022/09/29 10:10:25;;;;;;;;;;;;;;;27.99;49.55;98890.06;4994252;28;872;-60
2022/09/29 10:13:01;;;;;;;;;;;;;;;27.80;49.19;98896.59;4994236;28;889;-60
2022/09/29 10:15:30;;;;;;;;;;;;;;;27.54;50.38;98888.78;4994104;28;803;-61
2022/09/29 10:18:00;;;;;;;;;;;;;;;27.22;51.27;98888.81;4993332;28;855;-60
2022/09/29 10:20:37;;;;;;;;;;;;;;;26.89;51.84;98893.66;4994141;28;834;-60
2022/09/29 10:23:22;;;;;;;;;;;;;;;26.73;52.39;98898.25;4994237;28;827;-61
2022/09/29 10:26:03;;;;;;;;;;;;;;;26.76;52.72;98880.19;4994008;28;894;-60
2022/09/29 10:28:50;;;;;;;;;;;;;;;27.07;51.85;98872.25;4993789;28;1950;-60
2022/09/29 10:31:23;;;;;;;;;;;;;;;28.47;49.08;98863.22;4993639;28;1218;-61
2022/09/29 10:33:55;;;;;;;;;;;;;;;29.00;47.58;98867.25;4993626;28;1430;-60
2022/09/29 10:36:23;;;;;;;;;;;;;;;29.44;45.82;98861.78;4994064;28;885;-61
2022/09/29 10:38:51;;;;;;;;;;;;;;;29.87;44.93;98860.41;4993993;28;925;-61
2022/09/29 10:41:18;;;;;;;;;;;;;;;30.62;42.66;98855.66;4993714;28;792;-60
2022/09/29 10:43:51;;;;;;;;;;;;;;;31.44;39.02;98856.97;4993600;28;894;-60
2022/09/29 10:46:37;;;;;;;;;;;;;;;31.39;37.92;98849.31;4976125;28;1411;-60
2022/09/29 10:49:22;;;;;;;;;;;;;;;31.01;37.53;98853.69;4975921;28;1914;-60
2022/09/29 10:58:00;;;;;;;;;;;;;;;31.09;38.14;98848.00;4993264;28;669;-60
2022/09/29 11:00:32;;;;;;;;;;;;;;;31.55;36.29;98850.88;4993290;28;901;-61
2022/09/29 11:06:02;;;;;;;;;;;;;;;30.65;37.39;98848.06;4993239;28;656;-61
2022/09/29 11:08:29;;;;;;;;;;;;;;;30.34;37.93;98842.25;4993176;28;1886;-61
2022/09/29 11:23:13;;;;;;;;;;;;;;;28.40;43.77;98846.06;4993267;28;668;-60
2022/09/29 11:26:00;;;;;;;;;;;;;;;28.39;43.21;98842.47;4992943;28;815;-60
2022/09/29 11:28:38;;;;;;;;;;;;;;;28.56;42.60;98835.69;4961649;28;1942;-61
2022/09/29 11:31:27;;;;;;;;;;;;;;;29.41;41.12;98835.19;4992822;28;819;-61
2022/09/29 11:34:05;;;;;;;;;;;;;;;30.25;39.80;98834.97;4992601;28;1268;-61
2022/09/29 11:36:41;;;;;;;;;;;;;;;30.96;38.59;98831.81;4992663;28;851;-61
2022/09/29 11:39:19;;;;;;;;;;;;;;;31.12;38.40;98821.16;4975164;28;1326;-61
2022/09/29 11:41:46;;;;;;;;;;;;;;;31.09;37.58;98823.06;4992584;28;866;-60
2022/09/29 11:44:31;;;;;;;;;;;;;;;30.59;38.06;98816.88;4992597;28;803;-61
2022/09/29 11:47:05;;;;;;;;;;;;;;;29.89;38.67;98821.50;4992480;28;855;-62
2022/09/29 11:49:39;;;;;;;;;;;;;;;29.51;39.09;98819.16;4992775;28;1902;-62
2022/09/29 11:52:17;;;;;;;;;;;;;;;29.31;39.42;98822.78;4992469;28;847;-62
2022/09/29 11:54:56;;;;;;;;;;;;;;;29.08;39.93;98828.25;4992369;28;850;-61
2022/09/29 11:57:29;;;;;;;;;;;;;;;29.11;39.84;98818.66;4992322;28;807;-62
2022/09/29 12:00:05;;;;;;;;;;;;;;;29.68;39.40;98815.06;4992608;28;855;-61
2022/09/29 12:02:32;;;;;;;;;;;;;;;30.04;38.87;98808.66;4992334;28;827;-62
2022/09/29 12:05:04;;;;;;;;;;;;;;;30.35;38.03;98811.69;4992316;28;843;-62
2022/09/29 12:07:36;;;;;;;;;;;;;;;30.58;37.85;98815.34;4992154;28;1946;-61
2022/09/29 12:10:22;;;;;;;;;;;;;;;30.80;37.64;98808.16;4992237;28;894;-62
2022/09/29 12:13:05;;;;;;;;;;;;;;;30.98;37.24;98805.56;4992105;28;955;-61
2022/09/29 12:15:31;;;;;;;;;;;;;;;30.91;37.27;98812.78;4992253;28;811;-61
2022/09/29 12:18:01;;;;;;;;;;;;;;;30.69;37.80;98819.94;4992176;28;874;-62
2022/09/29 12:20:34;;;;;;;;;;;;;;;30.40;38.16;98802.19;4992082;28;874;-62
2022/09/29 12:23:04;;;;;;;;;;;;;;;30.28;38.32;98801.75;4992117;28;862;-61
2022/09/29 12:25:34;;;;;;;;;;;;;;;30.17;38.41;98802.06;4991928;28;849;-62
2022/09/29 12:28:21;;;;;;;;;;;;;;;30.19;38.29;98810.81;4992742;28;1949;-61
2022/09/29 12:30:50;;;;;;;;;;;;;;;29.99;39.13;98806.75;4992158;28;1042;-62
2022/09/29 12:33:16;;;;;;;;;;;;;;;30.19;38.87;98807.97;4991957;28;1200;-61
2022/09/29 12:36:03;;;;;;;;;;;;;;;30.31;38.69;98801.38;4992306;28;846;-62
2022/09/29 12:38:44;;;;;;;;;;;;;;;29.59;40.93;98812.75;4991852;28;1042;-61
2022/09/29 12:41:40;;;;;;;;;;;;;;;29.18;41.53;98815.09;4995257;28;863;-62
2022/09/29 12:44:20;;;;;;;;;;;;;;;29.49;40.53;98801.13;4983758;28;1387;-61
2022/09/29 12:47:01;;;;;;;;;;;;;;;29.53;40.18;98807.19;4995810;28;901;-61
2022/09/29 12:49:57;;;;;;;;;;;;;;;29.40;40.17;98808.06;4995700;28;1906;-62
2022/09/29 12:52:28;;;;;;;;;;;;;;;29.17;40.52;98802.19;4965799;28;1312;-62
2022/09/29 12:54:58;;;;;;;;;;;;;;;28.85;41.23;98802.47;4995558;28;851;-62
2022/09/29 12:57:27;;;;;;;;;;;;;;;28.79;41.88;98796.16;4996023;28;875;-62
2022/09/29 12:59:56;;;;;;;;;;;;;;;29.30;40.80;98775.75;4995694;28;796;-62
2022/09/29 13:02:27;;;;;;;;;;;;;;;29.28;40.48;98779.16;4995531;28;897;-62
